Time,TemperatureF,DewpointF,PressureIn,WindDirection,WindDirectionDegrees,WindSpeedMPH,WindSpeedGustMPH,Humidity,HourlyPrecipIn,Conditions,Clouds,dailyrainin,SoftwareType,DateUTC
2013-06-08 00:02:00,60.2,55.4,29.89,West,276,0.0,0.0,84,0.00,,,0.00,VWS V13.01,2013-06-08 05:02:00,
2013-06-08 00:07:00,60.2,55.1,29.89,West,276,0.0,0.0,83,0.00,,,0.00,VWS V13.01,2013-06-08 05:07:00,
2013-06-08 00:12:00,60.2,54.7,29.89,West,276,0.0,0.0,82,0.00,,,0.00,VWS V13.01,2013-06-08 05:12:00,
2013-06-08 00:17:00,60.2,55.4,29.89,West,276,0.0,0.0,84,0.00,,,0.00,VWS V13.01,2013-06-08 05:17:00,
2013-06-08 00:22:00,60.2,55.4,29.89,West,276,0.0,0.0,84,0.00,,,0.00,VWS V13.01,2013-06-08 05:22:00,
2013-06-08 00:27:00,60.2,55.1,29.89,West,276,0.0,0.0,83,0.00,,,0.00,VWS V13.01,2013-06-08 05:27:00,
2013-06-08 00:32:00,59.9,54.7,29.89,West,276,0.0,0.0,83,0.00,,,0.00,VWS V13.01,2013-06-08 05:32:00,
2013-06-08 00:37:00,59.9,54.7,29.89,West,276,0.0,0.0,83,0.00,,,0.00,VWS V13.01,2013-06-08 05:37:00,
2013-06-08 00:42:00,59.7,54.9,29.89,West,276,0.0,0.0,84,0.00,,,0.00,VWS V13.01,2013-06-08 05:42:00,
2013-06-08 00:47:00,59.5,55.0,29.89,West,276,0.0,0.0,85,0.00,,,0.00,VWS V13.01,2013-06-08 05:47:00,
2013-06-08 00:52:00,59.3,55.8,29.89,West,276,0.0,0.0,88,0.00,,,0.00,VWS V13.01,2013-06-08 05:52:00,
2013-06-08 00:57:00,59.2,55.6,29.89,West,276,0.0,0.0,88,0.00,,,0.00,VWS V13.01,2013-06-08 05:57:00,
2013-06-08 01:02:00,59.0,55.1,29.86,West,276,0.0,0.0,87,0.00,,,0.00,VWS V13.01,2013-06-08 06:02:00,
2013-06-08 01:07:00,59.0,56.1,29.86,West,276,0.0,0.0,90,0.00,,,0.00,VWS V13.01,2013-06-08 06:07:00,
2013-06-08 01:12:00,58.6,56.3,29.86,North,349,0.0,0.0,92,0.00,,,0.00,VWS V13.01,2013-06-08 06:12:00,
2013-06-08 01:17:00,58.4,55.8,29.89,NNW,340,0.0,0.0,91,0.00,,,0.00,VWS V13.01,2013-06-08 06:17:00,
2013-06-08 01:22:00,58.4,55.8,29.89,NNW,340,0.0,0.0,91,0.00,,,0.00,VWS V13.01,2013-06-08 06:22:00,
2013-06-08 01:27:00,58.4,55.8,29.89,NNW,340,0.0,0.0,91,0.00,,,0.00,VWS V13.01,2013-06-08 06:27:00,
2013-06-08 01:32:00,58.3,55.7,29.89,NNW,340,0.0,0.0,91,0.00,,,0.00,VWS V13.01,2013-06-08 06:32:00,
2013-06-08 01:37:00,58.1,55.2,29.89,NNW,340,0.0,0.0,90,0.00,,,0.00,VWS V13.01,2013-06-08 06:37:00,
2013-06-08 01:42:00,58.1,55.2,29.89,NNW,340,0.0,0.0,90,0.00,,,0.00,VWS V13.01,2013-06-08 06:42:00,
2013-06-08 01:47:00,57.9,55.3,29.89,NNW,340,0.0,0.0,91,0.00,,,0.00,VWS V13.01,2013-06-08 06:47:00,
2013-06-08 01:52:00,57.7,54.8,29.89,NNW,341,0.0,0.0,90,0.00,,,0.00,VWS V13.01,2013-06-08 06:52:00,
2013-06-08 01:57:00,57.5,54.6,29.89,NNW,341,0.0,0.0,90,0.00,,,0.00,VWS V13.01,2013-06-08 06:57:00,
2013-06-08 02:02:00,57.5,54.9,29.89,NNW,341,0.0,0.0,91,0.00,,,0.00,VWS V13.01,2013-06-08 07:02:00,
2013-06-08 02:07:00,57.4,55.1,29.89,NNW,341,0.0,0.0,92,0.00,,,0.00,VWS V13.01,2013-06-08 07:07:00,
2013-06-08 02:12:00,57.4,55.1,29.89,NNW,341,0.0,0.0,92,0.00,,,0.00,VWS V13.01,2013-06-08 07:12:00,
2013-06-08 02:17:00,57.4,55.1,29.89,NNW,341,0.0,0.0,92,0.00,,,0.00,VWS V13.01,2013-06-08 07:17:00,
2013-06-08 02:22:00,57.4,55.7,29.89,NNW,341,0.0,0.0,94,0.00,,,0.00,VWS V13.01,2013-06-08 07:22:00,
2013-06-08 02:27:00,57.4,56.2,29.89,NNW,341,0.0,0.0,96,0.00,,,0.00,VWS V13.01,2013-06-08 07:27:00,
2013-06-08 02:32:00,57.4,56.5,29.89,NNW,341,0.0,0.0,97,0.00,,,0.00,VWS V13.01,2013-06-08 07:32:00,
2013-06-08 02:37:00,57.4,56.5,29.89,NNW,341,0.0,0.0,97,0.00,,,0.00,VWS V13.01,2013-06-08 07:37:00,
2013-06-08 02:42:00,57.4,56.2,29.89,NNW,341,0.0,0.0,96,0.00,,,0.00,VWS V13.01,2013-06-08 07:42:00,
2013-06-08 02:47:00,57.4,56.5,29.89,NNE,17,0.0,0.0,97,0.00,,,0.00,VWS V13.01,2013-06-08 07:47:00,
2013-06-08 02:52:00,57.2,56.3,29.89,NNE,14,0.0,2.7,97,0.00,,,0.00,VWS V13.01,2013-06-08 07:52:00,
2013-06-08 02:57:00,56.8,55.1,29.89,North,4,0.0,0.0,94,0.00,,,0.00,VWS V13.01,2013-06-08 07:57:00,
2013-06-08 03:02:00,56.8,54.8,29.89,North,4,0.0,0.0,93,0.00,,,0.00,VWS V13.01,2013-06-08 08:02:00,
2013-06-08 03:07:00,56.8,54.8,29.89,North,4,0.0,0.0,93,0.00,,,0.00,VWS V13.01,2013-06-08 08:07:00,
2013-06-08 03:12:00,56.8,54.8,29.89,North,4,0.0,0.0,93,0.00,,,0.00,VWS V13.01,2013-06-08 08:12:00,
2013-06-08 03:17:00,56.6,54.6,29.89,North,4,0.0,0.0,93,0.00,,,0.00,VWS V13.01,2013-06-08 08:17:00,
2013-06-08 03:22:00,56.5,54.5,29.89,North,4,0.0,0.0,93,0.00,,,0.00,VWS V13.01,2013-06-08 08:22:00,
2013-06-08 03:27:00,56.5,54.8,29.89,North,4,0.0,0.0,94,0.00,,,0.00,VWS V13.01,2013-06-08 08:27:00,
2013-06-08 03:32:00,56.5,54.8,29.89,North,4,0.0,0.0,94,0.00,,,0.00,VWS V13.01,2013-06-08 08:32:00,
2013-06-08 03:37:00,56.3,54.6,29.89,North,4,0.0,0.0,94,0.00,,,0.00,VWS V13.01,2013-06-08 08:37:00,
2013-06-08 03:42:00,56.1,54.4,29.89,North,4,0.0,0.0,94,0.00,,,0.00,VWS V13.01,2013-06-08 08:42:00,
2013-06-08 03:47:00,56.1,54.4,29.89,North,4,0.0,0.0,94,0.00,,,0.00,VWS V13.01,2013-06-08 08:47:00,
2013-06-08 03:52:00,56.1,55.0,29.89,North,4,0.0,0.0,96,0.00,,,0.00,VWS V13.01,2013-06-08 08:52:00,
2013-06-08 03:57:00,56.1,55.3,29.89,North,4,0.0,0.0,97,0.00,,,0.00,VWS V13.01,2013-06-08 08:57:00,
2013-06-08 04:02:00,56.1,55.3,29.89,North,4,0.0,0.0,97,0.00,,,0.00,VWS V13.01,2013-06-08 09:02:00,
2013-06-08 04:07:00,56.1,55.5,29.89,North,4,0.0,0.0,98,0.00,,,0.00,VWS V13.01,2013-06-08 09:07:00,
2013-06-08 04:12:00,55.9,55.4,29.89,NNW,341,0.0,0.0,98,0.00,,,0.00,VWS V13.01,2013-06-08 09:12:00,
2013-06-08 04:17:00,55.7,55.2,29.89,NNW,341,0.0,0.0,98,0.00,,,0.00,VWS V13.01,2013-06-08 09:17:00,
2013-06-08 04:22:00,55.7,55.5,29.89,NNW,341,0.0,0.0,99,0.00,,,0.00,VWS V13.01,2013-06-08 09:22:00,
2013-06-08 04:27:00,55.7,55.7,29.89,NNW,341,0.0,0.0,100,0.00,,,0.00,VWS V13.01,2013-06-08 09:27:00,
2013-06-08 04:32:00,55.6,55.6,29.89,NNW,341,0.0,0.0,100,0.00,,,0.00,VWS V13.01,2013-06-08 09:32:00,
2013-06-08 04:37:00,55.6,55.6,29.89,NNW,341,0.0,0.0,100,0.00,,,0.00,VWS V13.01,2013-06-08 09:37:00,
2013-06-08 04:42:00,55.6,55.6,29.89,NNW,341,0.0,0.0,100,0.00,,,0.00,VWS V13.01,2013-06-08 09:42:00,
2013-06-08 04:47:00,55.4,55.4,29.89,NNW,341,0.0,0.0,100,0.00,,,0.00,VWS V13.01,2013-06-08 09:47:00,
2013-06-08 04:52:00,55.4,55.4,29.89,NNW,341,0.0,0.0,100,0.00,,,0.00,VWS V13.01,2013-06-08 09:52:00,
2013-06-08 04:57:00,55.4,55.4,29.89,NNW,341,0.0,0.0,100,0.00,,,0.00,VWS V13.01,2013-06-08 09:57:00,
2013-06-08 05:02:00,55.4,55.4,29.89,NNW,341,0.0,0.0,100,0.00,,,0.00,VWS V13.01,2013-06-08 10:02:00,
2013-06-08 05:07:00,55.2,55.2,29.89,NNW,341,0.0,0.0,100,0.00,,,0.00,VWS V13.01,2013-06-08 10:07:00,
2013-06-08 05:12:00,55.0,55.0,29.89,NNW,341,0.0,0.0,100,0.00,,,0.00,VWS V13.01,2013-06-08 10:12:00,
2013-06-08 05:17:00,55.0,55.0,29.89,North,353,0.0,0.0,100,0.00,,,0.00,VWS V13.01,2013-06-08 10:17:00,
2013-06-08 05:22:00,54.8,54.8,29.89,North,357,0.0,0.0,100,0.00,,,0.00,VWS V13.01,2013-06-08 10:22:00,
2013-06-08 05:27:00,54.8,54.8,29.89,North,357,0.0,0.0,100,0.00,,,0.00,VWS V13.01,2013-06-08 10:27:00,
2013-06-08 05:32:00,54.7,54.7,29.89,North,357,0.0,0.0,100,0.00,,,0.00,VWS V13.01,2013-06-08 10:32:00,
2013-06-08 05:37:00,54.7,54.7,29.89,North,357,0.0,0.0,100,0.00,,,0.00,VWS V13.01,2013-06-08 10:37:00,
2013-06-08 05:42:00,54.7,54.7,29.89,North,357,0.0,0.0,100,0.00,,,0.00,VWS V13.01,2013-06-08 10:42:00,
2013-06-08 05:47:00,54.7,54.7,29.89,North,357,0.0,0.0,100,0.00,,,0.00,VWS V13.01,2013-06-08 10:47:00,
2013-06-08 05:52:00,54.5,54.5,29.89,North,357,0.0,0.0,100,0.00,,,0.00,VWS V13.01,2013-06-08 10:52:00,
2013-06-08 05:57:00,54.5,54.5,29.89,North,357,0.0,0.0,100,0.00,,,0.00,VWS V13.01,2013-06-08 10:57:00,
2013-06-08 06:02:00,54.3,54.3,29.89,North,357,0.0,0.0,100,0.00,,,0.00,VWS V13.01,2013-06-08 11:02:00,
2013-06-08 06:07:00,54.3,54.3,29.89,North,357,0.0,0.0,100,0.00,,,0.00,VWS V13.01,2013-06-08 11:07:00,
2013-06-08 06:12:00,54.3,54.3,29.89,North,357,0.0,0.0,100,0.00,,,0.00,VWS V13.01,2013-06-08 11:12:00,
2013-06-08 06:17:00,54.3,54.3,29.89,North,357,0.0,0.0,100,0.00,,,0.00,VWS V13.01,2013-06-08 11:17:00,
2013-06-08 06:22:00,54.3,54.3,29.89,North,357,0.0,0.0,100,0.00,,,0.00,VWS V13.01,2013-06-08 11:22:00,
2013-06-08 06:27:00,54.3,54.3,29.89,North,357,0.0,0.0,100,0.00,,,0.00,VWS V13.01,2013-06-08 11:27:00,
2013-06-08 06:32:00,54.3,54.3,29.89,North,357,0.0,0.0,100,0.00,,,0.00,VWS V13.01,2013-06-08 11:32:00,
2013-06-08 06:37:00,54.5,54.5,29.89,North,357,0.0,0.0,100,0.00,,,0.00,VWS V13.01,2013-06-08 11:37:00,
2013-06-08 06:42:00,54.5,54.5,29.89,North,357,0.0,0.0,100,0.00,,,0.00,VWS V13.01,2013-06-08 11:42:00,
2013-06-08 06:47:00,54.7,54.7,29.89,North,357,0.0,0.0,100,0.00,,,0.00,VWS V13.01,2013-06-08 11:47:00,
2013-06-08 06:52:00,55.0,55.0,29.89,North,357,0.0,0.0,100,0.00,,,0.00,VWS V13.01,2013-06-08 11:52:00,
2013-06-08 06:57:00,55.4,55.4,29.89,North,357,0.0,0.0,100,0.00,,,0.00,VWS V13.01,2013-06-08 11:57:00,
2013-06-08 07:02:00,55.7,55.7,29.92,North,357,0.0,0.0,100,0.00,,,0.00,VWS V13.01,2013-06-08 12:02:00,
2013-06-08 07:07:00,56.1,56.1,29.92,North,357,0.0,0.0,100,0.00,,,0.00,VWS V13.01,2013-06-08 12:07:00,
2013-06-08 07:12:00,56.6,56.6,29.92,North,357,0.0,0.0,100,0.00,,,0.00,VWS V13.01,2013-06-08 12:12:00,
2013-06-08 07:17:00,57.2,57.2,29.92,North,357,0.0,0.0,100,0.00,,,0.00,VWS V13.01,2013-06-08 12:17:00,
2013-06-08 07:22:00,57.5,57.5,29.92,North,357,0.0,0.0,100,0.00,,,0.00,VWS V13.01,2013-06-08 12:22:00,
2013-06-08 07:27:00,58.1,58.1,29.92,North,357,0.0,0.0,100,0.00,,,0.00,VWS V13.01,2013-06-08 12:27:00,
2013-06-08 07:32:00,58.4,58.4,29.92,North,357,0.0,0.0,100,0.00,,,0.00,VWS V13.01,2013-06-08 12:32:00,
2013-06-08 07:37:00,58.8,58.8,29.92,North,357,0.0,0.0,100,0.00,,,0.00,VWS V13.01,2013-06-08 12:37:00,
2013-06-08 07:42:00,59.3,59.3,29.92,North,357,0.0,0.0,100,0.00,,,0.00,VWS V13.01,2013-06-08 12:42:00,
2013-06-08 07:47:00,59.9,59.9,29.92,ESE,105,0.0,0.0,100,0.00,,,0.00,VWS V13.01,2013-06-08 12:47:00,
2013-06-08 07:52:00,60.6,60.6,29.92,ESE,105,0.0,0.0,100,0.00,,,0.00,VWS V13.01,2013-06-08 12:52:00,
2013-06-08 07:57:00,61.1,61.1,29.92,East,93,0.0,0.0,100,0.00,,,0.00,VWS V13.01,2013-06-08 12:57:00,
2013-06-08 08:02:00,61.1,61.1,29.92,North,2,3.1,3.6,100,0.00,,,0.00,VWS V13.01,2013-06-08 13:02:00,
2013-06-08 08:07:00,63.1,55.1,29.92,North,4,2.7,3.1,75,0.00,,,0.00,VWS V13.01,2013-06-08 13:07:00,
2013-06-08 08:12:00,63.8,55.0,29.92,NNE,27,2.7,2.7,73,0.00,,,0.00,VWS V13.01,2013-06-08 13:12:00,
2013-06-08 08:17:00,64.6,56.1,29.92,NNE,33,0.0,0.0,74,0.00,,,0.00,VWS V13.01,2013-06-08 13:17:00,
2013-06-08 08:22:00,65.3,55.7,29.92,NE,35,0.0,0.0,71,0.00,,,0.00,VWS V13.01,2013-06-08 13:22:00,
2013-06-08 08:27:00,65.8,54.2,29.92,NNE,14,0.0,2.7,66,0.00,,,0.00,VWS V13.01,2013-06-08 13:27:00,
2013-06-08 08:32:00,66.4,54.2,29.92,ENE,78,3.1,3.6,65,0.00,,,0.00,VWS V13.01,2013-06-08 13:32:00,
2013-06-08 08:37:00,66.7,54.2,29.92,East,81,4.0,4.0,64,0.00,,,0.00,VWS V13.01,2013-06-08 13:37:00,
2013-06-08 08:42:00,66.7,53.3,29.92,SE,126,5.8,5.8,62,0.00,,,0.00,VWS V13.01,2013-06-08 13:42:00,
2013-06-08 08:47:00,66.7,53.3,29.92,East,87,2.7,3.6,62,0.00,,,0.00,VWS V13.01,2013-06-08 13:47:00,
2013-06-08 08:52:00,67.4,53.5,29.92,NNE,31,3.1,3.1,61,0.00,,,0.00,VWS V13.01,2013-06-08 13:52:00,
2013-06-08 08:57:00,68.2,54.2,29.92,ENE,64,0.0,0.0,61,0.00,,,0.00,VWS V13.01,2013-06-08 13:57:00,
2013-06-08 09:02:00,68.5,53.2,29.92,ENE,78,3.1,4.0,58,0.00,,,0.00,VWS V13.01,2013-06-08 14:02:00,
2013-06-08 09:07:00,68.3,52.5,29.92,East,87,5.8,5.8,57,0.00,,,0.00,VWS V13.01,2013-06-08 14:07:00,
2013-06-08 09:12:00,68.2,52.4,29.92,NE,34,3.1,6.3,57,0.00,,,0.00,VWS V13.01,2013-06-08 14:12:00,
2013-06-08 09:17:00,68.3,53.5,29.92,East,97,3.1,3.1,59,0.00,,,0.00,VWS V13.01,2013-06-08 14:17:00,
2013-06-08 09:22:00,68.7,53.8,29.92,ENE,77,0.0,0.0,59,0.00,,,0.00,VWS V13.01,2013-06-08 14:22:00,
2013-06-08 09:27:00,69.2,52.9,29.92,NNE,28,5.4,5.4,56,0.00,,,0.00,VWS V13.01,2013-06-08 14:27:00,
2013-06-08 09:32:00,69.6,52.7,29.92,NNW,329,0.0,2.2,55,0.00,,,0.00,VWS V13.01,2013-06-08 14:32:00,
2013-06-08 09:37:00,70.0,54.0,29.92,North,353,2.7,2.7,57,0.00,,,0.00,VWS V13.01,2013-06-08 14:37:00,
2013-06-08 09:42:00,70.7,53.7,29.92,ENE,68,2.7,4.0,55,0.00,,,0.00,VWS V13.01,2013-06-08 14:42:00,
2013-06-08 09:47:00,70.5,53.6,29.92,East,82,4.9,4.9,55,0.00,,,0.00,VWS V13.01,2013-06-08 14:47:00,
2013-06-08 09:52:00,70.5,54.1,29.92,ENE,77,2.2,4.9,56,0.00,,,0.00,VWS V13.01,2013-06-08 14:52:00,
2013-06-08 09:57:00,70.9,54.4,29.92,NNE,25,0.0,3.1,56,0.00,,,0.00,VWS V13.01,2013-06-08 14:57:00,
2013-06-08 10:02:00,71.8,54.7,29.92,ESE,121,3.6,3.6,55,0.00,,,0.00,VWS V13.01,2013-06-08 15:02:00,
2013-06-08 10:07:00,71.6,54.6,29.92,ENE,63,2.7,4.0,55,0.00,,,0.00,VWS V13.01,2013-06-08 15:07:00,
2013-06-08 10:12:00,71.6,54.6,29.92,East,89,4.0,4.0,55,0.00,,,0.00,VWS V13.01,2013-06-08 15:12:00,
2013-06-08 10:17:00,71.6,54.6,29.92,North,1,2.2,2.7,55,0.00,,,0.00,VWS V13.01,2013-06-08 15:17:00,
2013-06-08 10:22:00,72.3,55.7,29.92,SSE,159,4.0,4.0,56,0.00,,,0.00,VWS V13.01,2013-06-08 15:22:00,
2013-06-08 10:27:00,71.9,54.4,29.92,South,186,4.0,4.9,54,0.00,,,0.00,VWS V13.01,2013-06-08 15:27:00,
2013-06-08 10:32:00,71.4,54.4,29.92,SSW,211,0.0,2.7,55,0.00,,,0.00,VWS V13.01,2013-06-08 15:32:00,
2013-06-08 10:37:00,71.6,55.6,29.92,West,260,4.0,4.0,57,0.00,,,0.00,VWS V13.01,2013-06-08 15:37:00,
2013-06-08 10:42:00,71.8,54.7,29.92,West,269,4.5,4.5,55,0.00,,,0.00,VWS V13.01,2013-06-08 15:42:00,
2013-06-08 10:47:00,72.1,55.6,29.92,South,169,2.2,5.4,56,0.00,,,0.00,VWS V13.01,2013-06-08 15:47:00,
2013-06-08 10:52:00,72.1,55.1,29.92,South,183,4.9,4.9,55,0.00,,,0.00,VWS V13.01,2013-06-08 15:52:00,
2013-06-08 10:57:00,72.3,55.2,29.92,NNE,13,0.0,2.7,55,0.00,,,0.00,VWS V13.01,2013-06-08 15:57:00,
2013-06-08 11:02:00,72.8,55.8,29.92,South,190,5.4,5.4,55,0.00,,,0.00,VWS V13.01,2013-06-08 16:02:00,
2013-06-08 11:07:00,73.2,56.6,29.92,SSE,147,2.2,2.2,56,0.00,,,0.00,VWS V13.01,2013-06-08 16:07:00,
2013-06-08 11:12:00,73.6,55.4,29.92,South,170,3.6,4.0,53,0.00,,,0.00,VWS V13.01,2013-06-08 16:12:00,
2013-06-08 11:17:00,73.7,55.0,29.92,SW,224,5.4,5.4,52,0.00,,,0.00,VWS V13.01,2013-06-08 16:17:00,
2013-06-08 11:22:00,74.3,55.0,29.92,East,83,3.6,5.4,51,0.00,,,0.00,VWS V13.01,2013-06-08 16:22:00,
2013-06-08 11:27:00,74.8,56.0,29.92,NE,55,2.2,3.1,52,0.00,,,0.00,VWS V13.01,2013-06-08 16:27:00,
2013-06-08 11:32:00,75.0,55.1,29.92,SE,134,0.0,3.6,50,0.00,,,0.00,VWS V13.01,2013-06-08 16:32:00,
2013-06-08 11:37:00,75.0,55.7,29.92,SSW,194,0.0,4.9,51,0.00,,,0.00,VWS V13.01,2013-06-08 16:37:00,
2013-06-08 11:42:00,75.0,55.7,29.92,NE,54,0.0,0.0,51,0.00,,,0.00,VWS V13.01,2013-06-08 16:42:00,
2013-06-08 11:47:00,75.7,56.3,29.92,ESE,119,4.0,4.9,51,0.00,,,0.00,VWS V13.01,2013-06-08 16:47:00,
2013-06-08 11:52:00,76.1,56.1,29.92,WSW,245,2.7,3.6,50,0.00,,,0.00,VWS V13.01,2013-06-08 16:52:00,
2013-06-08 11:57:00,75.9,56.5,29.92,SW,228,4.0,4.0,51,0.00,,,0.00,VWS V13.01,2013-06-08 16:57:00,
2013-06-08 12:02:00,75.9,53.7,29.92,NW,311,3.6,8.3,46,0.00,,,0.00,VWS V13.01,2013-06-08 17:02:00,
2013-06-08 12:07:00,76.1,53.8,29.92,SSE,164,4.9,4.9,46,0.00,,,0.00,VWS V13.01,2013-06-08 17:07:00,
2013-06-08 12:12:00,76.3,55.2,29.92,SSE,160,0.0,2.7,48,0.00,,,0.00,VWS V13.01,2013-06-08 17:12:00,
2013-06-08 12:17:00,77.0,52.8,29.92,South,184,5.4,6.3,43,0.00,,,0.00,VWS V13.01,2013-06-08 17:17:00,
2013-06-08 12:22:00,77.0,52.8,29.92,SSE,147,5.4,5.8,43,0.00,,,0.00,VWS V13.01,2013-06-08 17:22:00,
2013-06-08 12:27:00,77.0,52.8,29.92,SE,135,3.6,5.8,43,0.00,,,0.00,VWS V13.01,2013-06-08 17:27:00,
2013-06-08 12:32:00,77.0,52.8,29.89,SW,216,0.0,3.1,43,0.00,,,0.00,VWS V13.01,2013-06-08 17:32:00,
2013-06-08 12:37:00,77.2,53.6,29.89,WSW,239,2.7,3.1,44,0.00,,,0.00,VWS V13.01,2013-06-08 17:37:00,
2013-06-08 12:42:00,77.9,54.2,29.89,SE,143,4.0,5.4,44,0.00,,,0.00,VWS V13.01,2013-06-08 17:42:00,
2013-06-08 12:47:00,78.1,55.0,29.89,SSW,195,5.8,7.6,45,0.00,,,0.00,VWS V13.01,2013-06-08 17:47:00,
2013-06-08 12:52:00,77.9,53.6,29.89,South,181,3.6,5.4,43,0.00,,,0.00,VWS V13.01,2013-06-08 17:52:00,
2013-06-08 12:57:00,77.5,53.9,29.89,SSW,208,2.2,2.7,44,0.00,,,0.00,VWS V13.01,2013-06-08 17:57:00,
2013-06-08 13:02:00,78.1,53.8,29.89,NNW,337,2.7,3.1,43,0.00,,,0.00,VWS V13.01,2013-06-08 18:02:00,
2013-06-08 13:07:00,78.8,53.8,29.89,West,264,4.9,4.9,42,0.00,,,0.00,VWS V13.01,2013-06-08 18:07:00,
2013-06-08 13:12:00,78.4,54.1,29.89,NW,325,4.9,5.4,43,0.00,,,0.00,VWS V13.01,2013-06-08 18:12:00,
2013-06-08 13:17:00,78.1,53.8,29.89,WNW,302,2.7,4.0,43,0.00,,,0.00,VWS V13.01,2013-06-08 18:17:00,
2013-06-08 13:22:00,79.0,53.9,29.89,NNE,25,3.1,3.1,42,0.00,,,0.00,VWS V13.01,2013-06-08 18:22:00,
2013-06-08 13:27:00,79.7,55.2,29.89,ESE,107,5.4,5.4,43,0.00,,,0.00,VWS V13.01,2013-06-08 18:27:00,
2013-06-08 13:32:00,79.9,56.0,29.89,NE,44,3.6,3.6,44,0.00,,,0.00,VWS V13.01,2013-06-08 18:32:00,
2013-06-08 13:37:00,80.0,54.9,29.89,East,88,3.6,3.6,42,0.00,,,0.00,VWS V13.01,2013-06-08 18:37:00,
2013-06-08 13:42:00,79.7,54.6,29.89,East,80,2.2,2.2,42,0.00,,,0.00,VWS V13.01,2013-06-08 18:42:00,
2013-06-08 13:47:00,80.4,54.6,29.89,North,1,2.2,2.2,41,0.00,,,0.00,VWS V13.01,2013-06-08 18:47:00,
2013-06-08 13:52:00,80.6,54.7,29.89,SW,228,4.0,4.0,41,0.00,,,0.00,VWS V13.01,2013-06-08 18:52:00,
2013-06-08 13:57:00,80.8,54.2,29.89,NE,42,0.0,4.0,40,0.00,,,0.00,VWS V13.01,2013-06-08 18:57:00,
2013-06-08 14:02:00,80.2,54.4,29.89,SSE,151,0.0,0.0,41,0.00,,,0.00,VWS V13.01,2013-06-08 19:02:00,
2013-06-08 14:07:00,80.4,55.9,29.89,SW,224,4.9,5.8,43,0.00,,,0.00,VWS V13.01,2013-06-08 19:07:00,
2013-06-08 14:12:00,80.6,54.7,29.89,SSW,192,3.6,3.6,41,0.00,,,0.00,VWS V13.01,2013-06-08 19:12:00,
2013-06-08 14:17:00,80.4,53.9,29.89,West,263,4.9,5.4,40,0.00,,,0.00,VWS V13.01,2013-06-08 19:17:00,
2013-06-08 14:22:00,79.9,54.1,29.89,WNW,303,3.1,4.0,41,0.00,,,0.00,VWS V13.01,2013-06-08 19:22:00,
2013-06-08 14:27:00,80.0,54.9,29.89,West,259,4.0,4.9,42,0.00,,,0.00,VWS V13.01,2013-06-08 19:27:00,
2013-06-08 14:32:00,80.4,54.6,29.86,NNE,31,3.6,5.4,41,0.00,,,0.00,VWS V13.01,2013-06-08 19:32:00,
2013-06-08 14:37:00,81.5,55.5,29.86,NNE,14,2.7,2.7,41,0.00,,,0.00,VWS V13.01,2013-06-08 19:37:00,
2013-06-08 14:42:00,81.5,55.5,29.86,ENE,63,0.0,0.0,41,0.00,,,0.00,VWS V13.01,2013-06-08 19:42:00,
2013-06-08 14:47:00,81.8,55.9,29.86,NE,55,2.7,3.1,41,0.00,,,0.00,VWS V13.01,2013-06-08 19:47:00,
2013-06-08 14:52:00,82.2,55.5,29.86,SE,124,2.7,4.0,40,0.00,,,0.00,VWS V13.01,2013-06-08 19:52:00,
2013-06-08 14:57:00,82.0,55.3,29.86,NE,46,4.0,4.9,40,0.00,,,0.00,VWS V13.01,2013-06-08 19:57:00,
2013-06-08 15:02:00,82.2,55.5,29.86,NE,48,4.9,5.8,40,0.00,,,0.00,VWS V13.01,2013-06-08 20:02:00,
2013-06-08 15:07:00,82.4,56.3,29.86,NNE,26,3.6,4.0,41,0.00,,,0.00,VWS V13.01,2013-06-08 20:07:00,
2013-06-08 15:12:00,82.2,55.5,29.86,NE,35,2.7,2.7,40,0.00,,,0.00,VWS V13.01,2013-06-08 20:12:00,
2013-06-08 15:17:00,82.4,56.3,29.86,NNE,26,3.1,3.1,41,0.00,,,0.00,VWS V13.01,2013-06-08 20:17:00,
2013-06-08 15:22:00,82.6,55.8,29.86,WSW,256,0.0,0.0,40,0.00,,,0.00,VWS V13.01,2013-06-08 20:22:00,
2013-06-08 15:27:00,82.7,56.0,29.86,East,97,3.1,4.0,40,0.00,,,0.00,VWS V13.01,2013-06-08 20:27:00,
2013-06-08 15:32:00,82.2,55.5,29.86,ESE,121,3.6,3.6,40,0.00,,,0.00,VWS V13.01,2013-06-08 20:32:00,
2013-06-08 15:37:00,81.7,55.7,29.86,NNE,15,3.1,3.1,41,0.00,,,0.00,VWS V13.01,2013-06-08 20:37:00,
2013-06-08 15:42:00,82.0,56.0,29.86,West,278,3.1,4.0,41,0.00,,,0.00,VWS V13.01,2013-06-08 20:42:00,
2013-06-08 15:47:00,81.7,55.7,29.86,SSE,157,4.9,5.4,41,0.00,,,0.00,VWS V13.01,2013-06-08 20:47:00,
2013-06-08 15:52:00,81.7,55.7,29.86,ENE,77,2.2,2.7,41,0.00,,,0.00,VWS V13.01,2013-06-08 20:52:00,
2013-06-08 15:57:00,82.6,56.5,29.86,SW,220,2.7,3.1,41,0.00,,,0.00,VWS V13.01,2013-06-08 20:57:00,
2013-06-08 16:02:00,82.4,56.3,29.86,NNE,24,3.6,4.0,41,0.00,,,0.00,VWS V13.01,2013-06-08 21:02:00,
2013-06-08 16:07:00,82.9,58.2,29.86,ESE,114,4.0,4.0,43,0.00,,,0.00,VWS V13.01,2013-06-08 21:07:00,
2013-06-08 16:12:00,82.4,55.7,29.86,SE,128,4.9,4.9,40,0.00,,,0.00,VWS V13.01,2013-06-08 21:12:00,
2013-06-08 16:17:00,81.7,55.7,29.86,SE,131,3.6,3.6,41,0.00,,,0.00,VWS V13.01,2013-06-08 21:17:00,
2013-06-08 16:22:00,81.1,55.2,29.86,SE,132,2.7,3.1,41,0.00,,,0.00,VWS V13.01,2013-06-08 21:22:00,
2013-06-08 16:27:00,81.3,55.4,29.86,SSE,147,5.4,5.4,41,0.00,,,0.00,VWS V13.01,2013-06-08 21:27:00,
2013-06-08 16:32:00,81.3,56.0,29.86,SE,132,2.2,2.2,42,0.00,,,0.00,VWS V13.01,2013-06-08 21:32:00,
2013-06-08 16:37:00,81.3,54.7,29.86,East,88,2.7,4.9,40,0.00,,,0.00,VWS V13.01,2013-06-08 21:37:00,
2013-06-08 16:42:00,81.3,55.4,29.86,East,90,5.4,6.3,41,0.00,,,0.00,VWS V13.01,2013-06-08 21:42:00,
2013-06-08 16:47:00,81.7,55.7,29.86,ENE,78,4.0,4.9,41,0.00,,,0.00,VWS V13.01,2013-06-08 21:47:00,
2013-06-08 16:52:00,81.3,54.7,29.86,South,179,3.1,3.1,40,0.00,,,0.00,VWS V13.01,2013-06-08 21:52:00,
2013-06-08 16:57:00,81.7,55.7,29.86,SSE,159,2.7,2.7,41,0.00,,,0.00,VWS V13.01,2013-06-08 21:57:00,
2013-06-08 17:02:00,82.4,55.7,29.83,ESE,108,3.6,4.0,40,0.00,,,0.00,VWS V13.01,2013-06-08 22:02:00,
2013-06-08 17:07:00,82.4,56.3,29.83,SE,135,3.6,3.6,41,0.00,,,0.00,VWS V13.01,2013-06-08 22:07:00,
2013-06-08 17:12:00,82.4,55.7,29.83,SE,131,5.4,6.3,40,0.00,,,0.00,VWS V13.01,2013-06-08 22:12:00,
2013-06-08 17:17:00,82.0,55.3,29.83,ENE,62,5.4,5.4,40,0.00,,,0.00,VWS V13.01,2013-06-08 22:17:00,
2013-06-08 17:22:00,81.8,55.9,29.83,East,99,4.0,4.0,41,0.00,,,0.00,VWS V13.01,2013-06-08 22:22:00,
2013-06-08 17:27:00,81.7,55.0,29.83,SE,143,3.6,4.5,40,0.00,,,0.00,VWS V13.01,2013-06-08 22:27:00,
2013-06-08 17:32:00,81.3,55.4,29.83,East,82,2.2,4.0,41,0.00,,,0.00,VWS V13.01,2013-06-08 22:32:00,
2013-06-08 17:37:00,81.5,55.5,29.83,East,90,4.9,5.4,41,0.00,,,0.00,VWS V13.01,2013-06-08 22:37:00,
2013-06-08 17:42:00,81.3,56.0,29.83,ESE,114,4.0,4.0,42,0.00,,,0.00,VWS V13.01,2013-06-08 22:42:00,
2013-06-08 17:47:00,81.5,55.5,29.83,South,170,7.6,7.6,41,0.00,,,0.00,VWS V13.01,2013-06-08 22:47:00,
2013-06-08 17:52:00,81.5,55.5,29.83,SSE,158,2.7,3.1,41,0.00,,,0.00,VWS V13.01,2013-06-08 22:52:00,
2013-06-08 17:57:00,81.3,55.4,29.83,East,101,3.6,3.6,41,0.00,,,0.00,VWS V13.01,2013-06-08 22:57:00,
2013-06-08 18:02:00,81.3,55.4,29.83,ESE,103,5.4,5.8,41,0.00,,,0.00,VWS V13.01,2013-06-08 23:02:00,
2013-06-08 18:07:00,80.9,55.0,29.83,East,101,3.6,3.6,41,0.00,,,0.00,VWS V13.01,2013-06-08 23:07:00,
2013-06-08 18:12:00,80.9,55.7,29.83,ESE,117,3.6,3.6,42,0.00,,,0.00,VWS V13.01,2013-06-08 23:12:00,
2013-06-08 18:17:00,80.8,55.5,29.83,ESE,120,5.8,5.8,42,0.00,,,0.00,VWS V13.01,2013-06-08 23:17:00,
2013-06-08 18:22:00,80.4,55.2,29.83,SSE,147,4.0,4.0,42,0.00,,,0.00,VWS V13.01,2013-06-08 23:22:00,
2013-06-08 18:27:00,79.9,55.4,29.83,East,92,5.4,5.4,43,0.00,,,0.00,VWS V13.01,2013-06-08 23:27:00,
2013-06-08 18:32:00,79.3,54.9,29.83,SE,125,5.8,5.8,43,0.00,,,0.00,VWS V13.01,2013-06-08 23:32:00,
2013-06-08 18:37:00,79.1,55.4,29.83,SE,125,3.1,5.8,44,0.00,,,0.00,VWS V13.01,2013-06-08 23:37:00,
2013-06-08 18:42:00,79.1,55.4,29.83,ESE,104,6.3,6.3,44,0.00,,,0.00,VWS V13.01,2013-06-08 23:42:00,
2013-06-08 18:47:00,78.8,55.7,29.83,ENE,77,4.9,6.3,45,0.00,,,0.00,VWS V13.01,2013-06-08 23:47:00,
2013-06-08 18:52:00,78.6,56.1,29.83,East,90,2.7,5.4,46,0.00,,,0.00,VWS V13.01,2013-06-08 23:52:00,
2013-06-08 18:57:00,78.2,56.4,29.83,East,80,4.0,4.0,47,0.00,,,0.00,VWS V13.01,2013-06-08 23:57:00,
2013-06-08 19:02:00,78.1,57.4,29.83,East,84,3.1,3.6,49,0.00,,,0.00,VWS V13.01,2013-06-09 00:02:00,
2013-06-08 19:07:00,77.9,56.6,29.83,ESE,118,3.1,3.1,48,0.00,,,0.00,VWS V13.01,2013-06-09 00:07:00,
2013-06-08 19:12:00,77.7,57.0,29.83,ESE,117,3.6,4.0,49,0.00,,,0.00,VWS V13.01,2013-06-09 00:12:00,
2013-06-08 19:17:00,77.3,57.3,29.83,ESE,121,4.0,5.4,50,0.00,,,0.00,VWS V13.01,2013-06-09 00:17:00,
2013-06-08 19:22:00,77.2,57.1,29.83,ESE,120,3.1,3.1,50,0.00,,,0.00,VWS V13.01,2013-06-09 00:22:00,
2013-06-08 19:27:00,77.0,56.9,29.83,ESE,110,2.7,3.6,50,0.00,,,0.00,VWS V13.01,2013-06-09 00:27:00,
2013-06-08 19:32:00,77.0,57.5,29.83,ESE,103,2.2,2.7,51,0.00,,,0.00,VWS V13.01,2013-06-09 00:32:00,
2013-06-08 19:37:00,76.8,57.3,29.83,ESE,107,0.0,2.7,51,0.00,,,0.00,VWS V13.01,2013-06-09 00:37:00,
2013-06-08 19:42:00,76.8,57.3,29.83,East,90,0.0,0.0,51,0.00,,,0.00,VWS V13.01,2013-06-09 00:42:00,
2013-06-08 19:47:00,76.6,57.2,29.83,SE,127,4.0,4.9,51,0.00,,,0.00,VWS V13.01,2013-06-09 00:47:00,
2013-06-08 19:52:00,76.6,57.2,29.83,SE,124,3.6,8.7,51,0.00,,,0.00,VWS V13.01,2013-06-09 00:52:00,
2013-06-08 19:57:00,76.4,57.0,29.83,East,91,2.7,4.0,51,0.00,,,0.00,VWS V13.01,2013-06-09 00:57:00,
2013-06-08 20:02:00,76.4,57.0,29.83,ESE,121,3.1,4.0,51,0.00,,,0.00,VWS V13.01,2013-06-09 01:02:00,
2013-06-08 20:07:00,76.1,56.7,29.83,ESE,110,4.5,4.9,51,0.00,,,0.00,VWS V13.01,2013-06-09 01:07:00,
2013-06-08 20:12:00,75.7,56.3,29.83,East,98,3.1,3.1,51,0.00,,,0.00,VWS V13.01,2013-06-09 01:12:00,
2013-06-08 20:17:00,75.2,56.4,29.83,East,91,2.2,2.7,52,0.00,,,0.00,VWS V13.01,2013-06-09 01:17:00,
2013-06-08 20:22:00,74.8,56.6,29.83,ENE,69,3.6,4.0,53,0.00,,,0.00,VWS V13.01,2013-06-09 01:22:00,
2013-06-08 20:27:00,74.5,56.8,29.83,ENE,77,6.3,6.3,54,0.00,,,0.00,VWS V13.01,2013-06-09 01:27:00,
2013-06-08 20:32:00,74.1,56.4,29.83,East,87,2.7,3.1,54,0.00,,,0.00,VWS V13.01,2013-06-09 01:32:00,
2013-06-08 20:37:00,73.7,56.1,29.83,East,81,2.7,3.1,54,0.00,,,0.00,VWS V13.01,2013-06-09 01:37:00,
2013-06-08 20:42:00,73.6,56.4,29.83,ENE,75,2.2,2.2,55,0.00,,,0.00,VWS V13.01,2013-06-09 01:42:00,
2013-06-08 20:47:00,73.4,56.2,29.83,ENE,70,2.2,3.1,55,0.00,,,0.00,VWS V13.01,2013-06-09 01:47:00,
2013-06-08 20:52:00,73.0,56.4,29.83,NE,54,4.0,4.9,56,0.00,,,0.00,VWS V13.01,2013-06-09 01:52:00,
2013-06-08 20:57:00,72.8,56.7,29.83,ENE,72,4.9,4.9,57,0.00,,,0.00,VWS V13.01,2013-06-09 01:57:00,
2013-06-08 21:02:00,72.7,56.6,29.86,NE,52,2.2,3.6,57,0.00,,,0.00,VWS V13.01,2013-06-09 02:02:00,
2013-06-08 21:07:00,72.5,56.9,29.86,ENE,72,2.7,2.7,58,0.00,,,0.00,VWS V13.01,2013-06-09 02:07:00,
2013-06-08 21:12:00,72.3,57.2,29.86,East,95,2.7,3.1,59,0.00,,,0.00,VWS V13.01,2013-06-09 02:12:00,
2013-06-08 21:17:00,72.1,57.5,29.86,East,80,2.7,3.1,60,0.00,,,0.00,VWS V13.01,2013-06-09 02:17:00,
2013-06-08 21:22:00,71.9,57.3,29.86,East,93,2.7,3.1,60,0.00,,,0.00,VWS V13.01,2013-06-09 02:22:00,
2013-06-08 21:27:00,71.9,56.8,29.86,ENE,76,3.1,3.1,59,0.00,,,0.00,VWS V13.01,2013-06-09 02:27:00,
2013-06-08 21:32:00,71.8,56.7,29.86,ENE,70,2.2,2.7,59,0.00,,,0.00,VWS V13.01,2013-06-09 02:32:00,
2013-06-08 21:37:00,71.8,56.2,29.86,ESE,112,2.7,3.6,58,0.00,,,0.00,VWS V13.01,2013-06-09 02:37:00,
2013-06-08 21:42:00,71.8,56.2,29.86,ESE,111,3.1,3.6,58,0.00,,,0.00,VWS V13.01,2013-06-09 02:42:00,
2013-06-08 21:47:00,71.8,56.7,29.86,East,94,2.2,3.1,59,0.00,,,0.00,VWS V13.01,2013-06-09 02:47:00,
2013-06-08 21:52:00,71.6,56.5,29.86,ENE,65,2.7,2.7,59,0.00,,,0.00,VWS V13.01,2013-06-09 02:52:00,
2013-06-08 21:57:00,71.2,57.1,29.86,ENE,65,2.2,2.2,61,0.00,,,0.00,VWS V13.01,2013-06-09 02:57:00,
2013-06-08 22:02:00,70.7,57.0,29.89,ENE,65,0.0,2.2,62,0.00,,,0.00,VWS V13.01,2013-06-09 03:02:00,
2013-06-08 22:07:00,69.8,56.2,29.89,NNE,19,0.0,0.0,62,0.00,,,0.00,VWS V13.01,2013-06-09 03:07:00,
2013-06-08 22:12:00,69.2,56.1,29.89,NNE,29,2.7,3.1,63,0.00,,,0.00,VWS V13.01,2013-06-09 03:12:00,
2013-06-08 22:17:00,68.7,56.0,29.89,NNE,29,0.0,2.2,64,0.00,,,0.00,VWS V13.01,2013-06-09 03:17:00,
2013-06-08 22:22:00,68.2,56.0,29.89,NNE,29,0.0,0.0,65,0.00,,,0.00,VWS V13.01,2013-06-09 03:22:00,
2013-06-08 22:27:00,67.8,56.0,29.89,NNE,29,0.0,0.0,66,0.00,,,0.00,VWS V13.01,2013-06-09 03:27:00,
2013-06-08 22:32:00,67.3,55.9,29.89,NNE,29,0.0,0.0,67,0.00,,,0.00,VWS V13.01,2013-06-09 03:32:00,
2013-06-08 22:37:00,67.1,56.2,29.89,NNE,29,0.0,0.0,68,0.00,,,0.00,VWS V13.01,2013-06-09 03:37:00,
2013-06-08 22:42:00,66.7,56.2,29.89,NNE,29,0.0,0.0,69,0.00,,,0.00,VWS V13.01,2013-06-09 03:42:00,
2013-06-08 22:47:00,66.5,56.1,29.89,NNE,29,0.0,0.0,69,0.00,,,0.00,VWS V13.01,2013-06-09 03:47:00,
2013-06-08 22:52:00,66.2,56.1,29.89,NNE,29,0.0,0.0,70,0.00,,,0.00,VWS V13.01,2013-06-09 03:52:00,
2013-06-08 22:57:00,66.0,56.3,29.89,NNE,29,0.0,0.0,71,0.00,,,0.00,VWS V13.01,2013-06-09 03:57:00,
2013-06-08 23:01:00,65.6,56.4,29.89,NNE,29,0.0,0.0,72,0.00,,,0.00,VWS V13.01,2013-06-09 04:01:00,
2013-06-08 23:06:00,65.3,56.8,29.89,NNE,29,0.0,0.0,74,0.00,,,0.00,VWS V13.01,2013-06-09 04:06:00,
2013-06-08 23:11:00,64.7,57.0,29.89,NNE,29,0.0,0.0,76,0.00,,,0.00,VWS V13.01,2013-06-09 04:11:00,
2013-06-08 23:16:00,64.4,57.7,29.89,NNE,29,0.0,0.0,79,0.00,,,0.00,VWS V13.01,2013-06-09 04:16:00,
2013-06-08 23:21:00,64.2,58.3,29.89,NNE,29,0.0,0.0,81,0.00,,,0.00,VWS V13.01,2013-06-09 04:21:00,
2013-06-08 23:26:00,63.8,58.6,29.89,NNE,29,0.0,0.0,83,0.00,,,0.00,VWS V13.01,2013-06-09 04:26:00,
2013-06-08 23:31:00,63.7,58.7,29.89,NNE,29,0.0,0.0,84,0.00,,,0.00,VWS V13.01,2013-06-09 04:31:00,
2013-06-08 23:36:00,63.5,58.6,29.89,NNE,29,0.0,0.0,84,0.00,,,0.00,VWS V13.01,2013-06-09 04:36:00,
2013-06-08 23:41:00,63.5,58.2,29.89,NNE,29,0.0,0.0,83,0.00,,,0.00,VWS V13.01,2013-06-09 04:41:00,
2013-06-08 23:46:00,63.5,58.6,29.89,NNE,29,0.0,0.0,84,0.00,,,0.00,VWS V13.01,2013-06-09 04:46:00,
2013-06-08 23:51:00,63.1,57.9,29.89,NNE,29,0.0,0.0,83,0.00,,,0.00,VWS V13.01,2013-06-09 04:51:00,
2013-06-08 23:56:00,62.9,58.0,29.89,NNE,29,0.0,0.0,84,0.00,,,0.00,VWS V13.01,2013-06-09 04:56:00,